Aérodrome :
LOGIN :

S'inscrire | Disclaimer

   EN    FR    IT 

 










Légende :    VFR   VFR Marginal   IFR   IFR Intensif   IFR Très Intensif
Visi : 
Plafond : 
>= 8 km
>= 3000ft
5 à 8 km
1000 à 3000 ft
1500m à 5 km
500 à 1000 ft
800 à 1500m
200 à 500 ft
< 800m
< 200 ft
Symboles :   Orages  Brouillard  Fortes neiges  Fortes précipitations  Vent > 20 kt
SIGMETs :   Divers  Orages  Givrage  Turbulence  Onde Orograph.  Cendres Volcan.






- Altitude de l'aérodrome : 604 ft
- Code IATA : LCJ


EPLL - Lodz

DERNIER METAR :
  • 250000Z 14005KT 100V170 9999 -RA FEW008 BKN027 03/00 Q1005

METARs EXPIRÉS :
  • 242330Z 14004KT 120V180 9999 -RA SCT027 OVC031 03/M00 Q1005
  • 242300Z 18004KT 140V220 9999 BKN029 OVC038 03/M00 Q1006
  • 242230Z 17004KT 130V220 9999 SCT045 03/M01 Q1007
  • 242200Z 16004KT 110V200 CAVOK 03/M01 Q1007
  • 242130Z VRB02KT CAVOK 03/M00 Q1008

TAF TAF EPLL
Valide du 25 à 00h jusqu'au 26 à 00h UTC


242330Z 2500/2524 17010KT 8000 -RA BKN020
PROB40
TEMPO 2500/2506 2000 SNRA BR BKN003 BKN010
BECMG 2504/2506 23012KT
PROB40
TEMPO 2508/2520 23017G27KT SHRA BKN012CB



MET'MAP, la Météo Aéronautique d'un coup d'oeil ! - Copyright ORBIFLY Décembre 2007 - Disclaimer

ORBIFLY MET'MAP TEAM :

Programmation & Développement : Alexandra Zaïnal
Sur une idée originale de : Baudouin d'Aumeries
Assistance à la programmation : Marc-Olivier Méhu
Soutien technique & logistique : Manuel Goepfert

Contact : metmap@orbifly.com




SOURCES & CREDITS :

   NOAA